Akutan, Alaska
Current Conditions -  °F | °C
As of 11:15 PM on Monday 26 Jan 2015 (Local Time) from PAUT Reporting Station
Overcast Overcast  
Wind Chill: 31°   Ceiling: 2000
Heat Index: 37°   Visibility: 10mi
Dew Point: 35°   Wind: 8mph
Humidity: 92%   Direction: 110°ESE
Pressure: 29.36"   Gusts: NA
Location:  54.14°N, 165.77°W
Report Text: PAUT 270815Z AUTO 11007KT 10SM SCT012 BKN020 OVC039 03/02 A2936 RMK AO2 T00300018
Loading
Personal Weather Stations






























Interactive Weather Map New forecast layout! Learn more

10-Day Weather Forecast

Advertisements
Track Severe Weather on mobile